sensor_id;sensor_type;location;lat;lon;timestamp;pressure;altitude;pressure_sealevel;temperature;humidity
9538;BME280;4807;48.024;11.726;2023-12-22T00:03:06;93432.34;;;4.85;94.50
9538;BME280;4807;48.024;11.726;2023-12-22T00:06:15;93418.72;;;4.88;94.52
9538;BME280;4807;48.024;11.726;2023-12-22T00:09:24;93429.88;;;5.17;93.60
9538;BME280;4807;48.024;11.726;2023-12-22T00:12:33;93433.84;;;5.65;91.96
9538;BME280;4807;48.024;11.726;2023-12-22T00:15:42;93457.13;;;5.95;90.28
9538;BME280;4807;48.024;11.726;2023-12-22T00:18:53;93460.97;;;5.86;91.21
9538;BME280;4807;48.024;11.726;2023-12-22T00:22:03;93489.25;;;5.72;92.79
9538;BME280;4807;48.024;11.726;2023-12-22T00:25:13;93495.00;;;4.90;92.85
9538;BME280;4807;48.024;11.726;2023-12-22T00:28:21;93569.06;;;3.59;92.82
9538;BME280;4807;48.024;11.726;2023-12-22T00:31:30;93571.69;;;1.80;97.47
9538;BME280;4807;48.024;11.726;2023-12-22T00:34:40;93553.75;;;1.40;100.00
9538;BME280;4807;48.024;11.726;2023-12-22T00:37:49;93552.50;;;1.36;100.00
9538;BME280;4807;48.024;11.726;2023-12-22T00:40:58;93557.75;;;1.36;100.00
9538;BME280;4807;48.024;11.726;2023-12-22T00:44:07;93559.72;;;1.34;100.00
9538;BME280;4807;48.024;11.726;2023-12-22T00:47:15;93561.16;;;1.22;100.00
9538;BME280;4807;48.024;11.726;2023-12-22T00:50:29;93569.09;;;1.13;100.00
9538;BME280;4807;48.024;11.726;2023-12-22T00:53:38;93575.69;;;1.09;100.00
9538;BME280;4807;48.024;11.726;2023-12-22T00:56:47;93577.97;;;1.12;100.00
9538;BME280;4807;48.024;11.726;2023-12-22T00:59:56;93586.16;;;1.09;100.00
9538;BME280;4807;48.024;11.726;2023-12-22T01:03:05;93587.16;;;1.08;100.00
9538;BME280;4807;48.024;11.726;2023-12-22T01:06:15;93572.25;;;1.09;100.00
9538;BME280;4807;48.024;11.726;2023-12-22T01:09:23;93603.25;;;1.05;100.00
9538;BME280;4807;48.024;11.726;2023-12-22T01:12:33;93592.19;;;0.95;100.00
9538;BME280;4807;48.024;11.726;2023-12-22T01:15:42;93585.81;;;0.90;100.00
9538;BME280;4807;48.024;11.726;2023-12-22T01:18:52;93587.34;;;0.84;100.00
9538;BME280;4807;48.024;11.726;2023-12-22T01:22:03;93593.22;;;0.86;100.00
9538;BME280;4807;48.024;11.726;2023-12-22T01:25:11;93593.50;;;0.91;100.00
9538;BME280;4807;48.024;11.726;2023-12-22T01:28:19;93609.16;;;0.99;100.00
9538;BME280;4807;48.024;11.726;2023-12-22T01:31:28;93612.78;;;0.98;100.00
9538;BME280;4807;48.024;11.726;2023-12-22T01:34:36;93620.94;;;1.03;100.00
9538;BME280;4807;48.024;11.726;2023-12-22T01:37:46;93620.31;;;1.01;100.00
9538;BME280;4807;48.024;11.726;2023-12-22T01:40:55;93625.38;;;1.03;100.00
9538;BME280;4807;48.024;11.726;2023-12-22T01:44:04;93613.59;;;0.99;100.00
9538;BME280;4807;48.024;11.726;2023-12-22T01:47:14;93632.38;;;0.88;100.00
9538;BME280;4807;48.024;11.726;2023-12-22T01:50:23;93620.91;;;0.89;100.00
9538;BME280;4807;48.024;11.726;2023-12-22T01:53:34;93616.66;;;0.88;100.00
9538;BME280;4807;48.024;11.726;2023-12-22T01:56:46;93608.47;;;0.83;100.00
9538;BME280;4807;48.024;11.726;2023-12-22T01:59:56;93606.97;;;0.88;100.00
9538;BME280;4807;48.024;11.726;2023-12-22T02:03:05;93609.59;;;0.88;100.00
9538;BME280;4807;48.024;11.726;2023-12-22T02:06:14;93604.16;;;0.90;100.00
9538;BME280;4807;48.024;11.726;2023-12-22T02:09:25;93604.00;;;0.91;100.00
9538;BME280;4807;48.024;11.726;2023-12-22T02:12:33;93601.69;;;0.96;100.00
9538;BME280;4807;48.024;11.726;2023-12-22T02:15:41;93604.75;;;1.00;100.00
9538;BME280;4807;48.024;11.726;2023-12-22T02:18:52;93603.59;;;1.02;100.00
9538;BME280;4807;48.024;11.726;2023-12-22T02:22:04;93602.44;;;1.05;100.00
9538;BME280;4807;48.024;11.726;2023-12-22T02:25:17;93609.09;;;1.07;100.00
9538;BME280;4807;48.024;11.726;2023-12-22T02:28:26;93617.78;;;1.08;100.00
9538;BME280;4807;48.024;11.726;2023-12-22T02:31:40;93618.50;;;1.02;100.00
9538;BME280;4807;48.024;11.726;2023-12-22T02:34:55;93634.50;;;0.84;100.00
9538;BME280;4807;48.024;11.726;2023-12-22T02:38:06;93599.53;;;0.77;100.00
9538;BME280;4807;48.024;11.726;2023-12-22T02:41:16;93599.53;;;0.77;100.00
9538;BME280;4807;48.024;11.726;2023-12-22T02:44:25;93580.78;;;0.88;100.00
9538;BME280;4807;48.024;11.726;2023-12-22T02:47:35;93595.31;;;0.91;100.00
9538;BME280;4807;48.024;11.726;2023-12-22T02:50:43;93603.13;;;0.99;100.00
9538;BME280;4807;48.024;11.726;2023-12-22T02:53:52;93602.78;;;1.02;100.00
9538;BME280;4807;48.024;11.726;2023-12-22T02:57:01;93604.25;;;1.04;100.00
9538;BME280;4807;48.024;11.726;2023-12-22T03:00:11;93587.53;;;1.05;100.00
9538;BME280;4807;48.024;11.726;2023-12-22T03:03:20;93575.50;;;1.11;100.00
9538;BME280;4807;48.024;11.726;2023-12-22T03:06:29;93574.34;;;1.13;100.00
9538;BME280;4807;48.024;11.726;2023-12-22T03:09:37;93564.84;;;1.12;100.00
9538;BME280;4807;48.024;11.726;2023-12-22T03:12:47;93567.56;;;1.19;100.00
9538;BME280;4807;48.024;11.726;2023-12-22T03:15:56;93564.78;;;1.21;100.00
9538;BME280;4807;48.024;11.726;2023-12-22T03:19:04;93555.72;;;1.23;100.00
9538;BME280;4807;48.024;11.726;2023-12-22T03:22:12;93539.81;;;1.25;100.00
9538;BME280;4807;48.024;11.726;2023-12-22T03:25:21;93532.59;;;1.27;100.00
9538;BME280;4807;48.024;11.726;2023-12-22T03:28:30;93554.47;;;1.34;100.00
9538;BME280;4807;48.024;11.726;2023-12-22T03:31:41;93556.94;;;1.35;100.00
9538;BME280;4807;48.024;11.726;2023-12-22T03:34:49;93555.78;;;1.38;100.00
9538;BME280;4807;48.024;11.726;2023-12-22T03:37:58;93556.47;;;1.32;100.00
9538;BME280;4807;48.024;11.726;2023-12-22T03:41:06;93560.19;;;1.37;100.00
9538;BME280;4807;48.024;11.726;2023-12-22T03:44:16;93554.41;;;1.42;100.00
9538;BME280;4807;48.024;11.726;2023-12-22T03:47:25;93550.97;;;1.41;100.00
9538;BME280;4807;48.024;11.726;2023-12-22T03:50:33;93543.81;;;1.50;100.00
9538;BME280;4807;48.024;11.726;2023-12-22T03:53:42;93529.38;;;1.54;100.00
9538;BME280;4807;48.024;11.726;2023-12-22T03:56:50;93533.16;;;1.66;100.00
9538;BME280;4807;48.024;11.726;2023-12-22T03:59:59;93527.44;;;1.92;100.00
9538;BME280;4807;48.024;11.726;2023-12-22T04:03:09;93532.66;;;2.07;100.00
9538;BME280;4807;48.024;11.726;2023-12-22T04:06:19;93530.00;;;2.21;100.00
9538;BME280;4807;48.024;11.726;2023-12-22T04:09:27;93522.66;;;2.53;100.00
9538;BME280;4807;48.024;11.726;2023-12-22T04:12:36;93518.97;;;2.68;100.00
9538;BME280;4807;48.024;11.726;2023-12-22T04:15:45;93528.13;;;2.73;100.00
9538;BME280;4807;48.024;11.726;2023-12-22T04:18:56;93528.81;;;2.81;100.00
9538;BME280;4807;48.024;11.726;2023-12-22T04:22:04;93533.84;;;3.04;98.83
9538;BME280;4807;48.024;11.726;2023-12-22T04:25:12;93540.75;;;3.05;98.33
9538;BME280;4807;48.024;11.726;2023-12-22T04:28:20;93540.56;;;3.06;97.90
9538;BME280;4807;48.024;11.726;2023-12-22T04:31:30;93547.69;;;3.13;98.23
9538;BME280;4807;48.024;11.726;2023-12-22T04:34:39;93555.25;;;3.01;98.08
9538;BME280;4807;48.024;11.726;2023-12-22T04:37:47;93557.00;;;3.15;97.48
9538;BME280;4807;48.024;11.726;2023-12-22T04:40:55;93545.34;;;3.24;96.86
9538;BME280;4807;48.024;11.726;2023-12-22T04:44:04;93530.75;;;3.22;97.47
9538;BME280;4807;48.024;11.726;2023-12-22T04:47:15;93537.59;;;3.16;97.23
9538;BME280;4807;48.024;11.726;2023-12-22T04:50:24;93538.94;;;3.33;96.92
9538;BME280;4807;48.024;11.726;2023-12-22T04:53:32;93545.78;;;3.28;96.56
9538;BME280;4807;48.024;11.726;2023-12-22T04:56:41;93550.34;;;3.40;96.75
9538;BME280;4807;48.024;11.726;2023-12-22T04:59:49;93558.81;;;3.42;96.86
9538;BME280;4807;48.024;11.726;2023-12-22T05:02:59;93558.88;;;3.49;96.36
9538;BME280;4807;48.024;11.726;2023-12-22T05:06:07;93551.19;;;3.48;96.46
9538;BME280;4807;48.024;11.726;2023-12-22T05:09:16;93535.44;;;3.54;95.94
9538;BME280;4807;48.024;11.726;2023-12-22T05:12:25;93540.38;;;3.64;96.20
9538;BME280;4807;48.024;11.726;2023-12-22T05:15:33;93528.91;;;3.78;95.62
9538;BME280;4807;48.024;11.726;2023-12-22T05:18:43;93528.56;;;3.88;94.34
9538;BME280;4807;48.024;11.726;2023-12-22T05:21:51;93537.69;;;3.92;94.09
9538;BME280;4807;48.024;11.726;2023-12-22T05:25:03;93549.88;;;3.99;93.87
9538;BME280;4807;48.024;11.726;2023-12-22T05:28:12;93565.50;;;4.07;93.34
9538;BME280;4807;48.024;11.726;2023-12-22T05:31:20;93559.44;;;4.07;93.38
9538;BME280;4807;48.024;11.726;2023-12-22T05:34:30;93580.78;;;4.18;92.89
9538;BME280;4807;48.024;11.726;2023-12-22T05:37:38;93565.81;;;4.26;92.10
9538;BME280;4807;48.024;11.726;2023-12-22T05:40:46;93569.47;;;4.31;90.89
9538;BME280;4807;48.024;11.726;2023-12-22T05:43:55;93569.09;;;4.34;91.46
9538;BME280;4807;48.024;11.726;2023-12-22T05:47:04;93557.28;;;4.30;91.29
9538;BME280;4807;48.024;11.726;2023-12-22T05:50:15;93559.75;;;4.32;91.52
9538;BME280;4807;48.024;11.726;2023-12-22T05:53:23;93575.97;;;4.29;91.83
9538;BME280;4807;48.024;11.726;2023-12-22T05:56:32;93593.94;;;4.18;93.17
9538;BME280;4807;48.024;11.726;2023-12-22T05:59:40;93585.59;;;4.15;93.55
9538;BME280;4807;48.024;11.726;2023-12-22T06:02:49;93599.16;;;4.05;94.88
9538;BME280;4807;48.024;11.726;2023-12-22T06:05:58;93575.97;;;3.94;95.92
9538;BME280;4807;48.024;11.726;2023-12-22T06:09:10;93598.81;;;3.87;97.89
9538;BME280;4807;48.024;11.726;2023-12-22T06:12:19;93595.56;;;3.85;98.94
9538;BME280;4807;48.024;11.726;2023-12-22T06:15:28;93593.31;;;3.82;100.00
9538;BME280;4807;48.024;11.726;2023-12-22T06:18:36;93606.47;;;3.82;100.00
9538;BME280;4807;48.024;11.726;2023-12-22T06:21:46;93610.53;;;3.84;100.00
9538;BME280;4807;48.024;11.726;2023-12-22T06:24:54;93617.88;;;3.89;100.00
9538;BME280;4807;48.024;11.726;2023-12-22T06:28:03;93633.69;;;3.89;100.00
9538;BME280;4807;48.024;11.726;2023-12-22T06:31:18;93643.31;;;3.82;100.00
9538;BME280;4807;48.024;11.726;2023-12-22T06:34:27;93645.81;;;3.90;100.00
9538;BME280;4807;48.024;11.726;2023-12-22T06:37:36;93643.66;;;4.00;99.60
9538;BME280;4807;48.024;11.726;2023-12-22T06:40:45;93641.53;;;4.17;98.63
9538;BME280;4807;48.024;11.726;2023-12-22T06:43:54;93628.97;;;4.12;98.55
9538;BME280;4807;48.024;11.726;2023-12-22T06:47:04;93628.19;;;4.18;98.13
9538;BME280;4807;48.024;11.726;2023-12-22T06:50:12;93634.72;;;4.29;97.15
9538;BME280;4807;48.024;11.726;2023-12-22T06:53:23;93651.56;;;4.35;96.39
9538;BME280;4807;48.024;11.726;2023-12-22T06:56:35;93647.69;;;4.31;96.21
9538;BME280;4807;48.024;11.726;2023-12-22T06:59:43;93642.31;;;4.45;94.54
9538;BME280;4807;48.024;11.726;2023-12-22T07:02:53;93632.81;;;4.51;93.90
9538;BME280;4807;48.024;11.726;2023-12-22T07:06:01;93653.09;;;4.57;93.56
9538;BME280;4807;48.024;11.726;2023-12-22T07:09:32;93650.09;;;4.60;94.07
9538;BME280;4807;48.024;11.726;2023-12-22T07:12:41;93653.56;;;4.67;93.10
9538;BME280;4807;48.024;11.726;2023-12-22T07:15:49;93647.91;;;4.70;92.24
9538;BME280;4807;48.024;11.726;2023-12-22T07:18:58;93662.50;;;4.73;92.68
9538;BME280;4807;48.024;11.726;2023-12-22T07:22:07;93663.31;;;4.80;91.22
9538;BME280;4807;48.024;11.726;2023-12-22T07:25:18;93665.78;;;4.81;90.69
9538;BME280;4807;48.024;11.726;2023-12-22T07:28:27;93680.16;;;4.79;91.34
9538;BME280;4807;48.024;11.726;2023-12-22T07:31:36;93676.69;;;4.72;92.55
9538;BME280;4807;48.024;11.726;2023-12-22T07:34:44;93675.66;;;4.66;93.47
9538;BME280;4807;48.024;11.726;2023-12-22T07:37:53;93692.63;;;4.57;93.87
9538;BME280;4807;48.024;11.726;2023-12-22T07:41:04;93690.78;;;4.51;94.17
9538;BME280;4807;48.024;11.726;2023-12-22T07:44:13;93715.13;;;4.53;93.84
9538;BME280;4807;48.024;11.726;2023-12-22T07:47:21;93715.53;;;4.56;93.46
9538;BME280;4807;48.024;11.726;2023-12-22T07:50:29;93709.88;;;4.59;93.36
9538;BME280;4807;48.024;11.726;2023-12-22T07:53:39;93723.09;;;4.66;93.46
9538;BME280;4807;48.024;11.726;2023-12-22T07:56:50;93704.22;;;4.63;94.21
9538;BME280;4807;48.024;11.726;2023-12-22T07:59:58;93697.59;;;4.73;92.78
9538;BME280;4807;48.024;11.726;2023-12-22T08:03:06;93701.31;;;4.85;91.34
9538;BME280;4807;48.024;11.726;2023-12-22T08:06:14;93711.09;;;4.98;91.45
9538;BME280;4807;48.024;11.726;2023-12-22T08:09:23;93716.00;;;5.08;90.52
9538;BME280;4807;48.024;11.726;2023-12-22T08:12:32;93706.06;;;5.10;90.32
9538;BME280;4807;48.024;11.726;2023-12-22T08:15:41;93719.84;;;5.12;89.55
9538;BME280;4807;48.024;11.726;2023-12-22T08:18:49;93779.94;;;5.10;89.47
9538;BME280;4807;48.024;11.726;2023-12-22T08:21:58;93783.91;;;4.92;91.82
9538;BME280;4807;48.024;11.726;2023-12-22T08:25:11;93825.63;;;4.54;93.13
9538;BME280;4807;48.024;11.726;2023-12-22T08:28:21;93778.63;;;3.81;95.42
9538;BME280;4807;48.024;11.726;2023-12-22T08:31:30;93796.50;;;3.50;98.00
9538;BME280;4807;48.024;11.726;2023-12-22T08:34:39;93837.19;;;3.32;100.00
9538;BME280;4807;48.024;11.726;2023-12-22T08:37:47;93833.31;;;3.50;100.00
9538;BME280;4807;48.024;11.726;2023-12-22T08:40:56;93819.19;;;3.51;100.00
9538;BME280;4807;48.024;11.726;2023-12-22T08:44:09;93821.41;;;3.68;100.00
9538;BME280;4807;48.024;11.726;2023-12-22T08:47:18;93818.03;;;3.96;100.00
9538;BME280;4807;48.024;11.726;2023-12-22T08:50:27;93813.56;;;4.17;100.00
9538;BME280;4807;48.024;11.726;2023-12-22T08:53:35;93817.34;;;4.30;100.00
9538;BME280;4807;48.024;11.726;2023-12-22T08:56:45;93823.34;;;4.23;100.00
9538;BME280;4807;48.024;11.726;2023-12-22T08:59:55;93836.66;;;4.15;100.00
9538;BME280;4807;48.024;11.726;2023-12-22T09:03:04;93844.38;;;4.17;100.00
9538;BME280;4807;48.024;11.726;2023-12-22T09:06:14;93834.88;;;4.22;100.00
9538;BME280;4807;48.024;11.726;2023-12-22T09:09:23;93851.19;;;4.33;100.00
9538;BME280;4807;48.024;11.726;2023-12-22T09:12:32;93860.09;;;4.32;100.00
9538;BME280;4807;48.024;11.726;2023-12-22T09:15:41;93854.09;;;4.38;100.00
9538;BME280;4807;48.024;11.726;2023-12-22T09:18:53;93850.50;;;4.45;100.00
9538;BME280;4807;48.024;11.726;2023-12-22T09:22:02;93852.19;;;4.53;100.00
9538;BME280;4807;48.024;11.726;2023-12-22T09:25:11;93830.84;;;4.48;100.00
9538;BME280;4807;48.024;11.726;2023-12-22T09:28:19;93810.00;;;4.53;100.00
9538;BME280;4807;48.024;11.726;2023-12-22T09:31:29;93807.47;;;4.66;99.57
9538;BME280;4807;48.024;11.726;2023-12-22T09:34:38;93798.72;;;4.66;99.82
9538;BME280;4807;48.024;11.726;2023-12-22T09:37:48;93829.66;;;4.78;98.38
9538;BME280;4807;48.024;11.726;2023-12-22T09:40:58;93822.38;;;4.87;98.07
9538;BME280;4807;48.024;11.726;2023-12-22T09:44:06;93823.69;;;4.97;96.61
9538;BME280;4807;48.024;11.726;2023-12-22T09:47:17;93821.66;;;4.99;96.17
9538;BME280;4807;48.024;11.726;2023-12-22T09:50:28;93820.88;;;5.06;95.64
9538;BME280;4807;48.024;11.726;2023-12-22T09:53:41;93823.13;;;5.02;95.80
9538;BME280;4807;48.024;11.726;2023-12-22T09:56:53;93838.34;;;5.07;96.78
9538;BME280;4807;48.024;11.726;2023-12-22T10:00:05;93848.09;;;5.06;96.13
9538;BME280;4807;48.024;11.726;2023-12-22T10:03:16;93845.19;;;4.94;95.09
9538;BME280;4807;48.024;11.726;2023-12-22T10:06:27;93835.34;;;4.82;94.34
9538;BME280;4807;48.024;11.726;2023-12-22T10:09:36;93828.69;;;4.58;94.67
9538;BME280;4807;48.024;11.726;2023-12-22T10:12:45;93844.09;;;4.33;95.81
9538;BME280;4807;48.024;11.726;2023-12-22T10:15:54;93835.47;;;4.18;96.31
9538;BME280;4807;48.024;11.726;2023-12-22T10:19:06;93824.25;;;4.09;96.78
9538;BME280;4807;48.024;11.726;2023-12-22T10:22:16;93813.44;;;3.83;97.23
9538;BME280;4807;48.024;11.726;2023-12-22T10:25:28;93808.81;;;3.64;99.68
9538;BME280;4807;48.024;11.726;2023-12-22T10:28:37;93802.66;;;3.57;100.00
9538;BME280;4807;48.024;11.726;2023-12-22T10:31:47;93805.03;;;3.52;100.00
9538;BME280;4807;48.024;11.726;2023-12-22T10:34:57;93808.28;;;3.54;100.00
9538;BME280;4807;48.024;11.726;2023-12-22T10:38:05;93802.38;;;3.52;100.00
9538;BME280;4807;48.024;11.726;2023-12-22T10:41:14;93795.25;;;3.45;100.00
9538;BME280;4807;48.024;11.726;2023-12-22T10:44:24;93791.63;;;3.47;100.00
9538;BME280;4807;48.024;11.726;2023-12-22T10:47:33;93796.13;;;3.53;100.00
9538;BME280;4807;48.024;11.726;2023-12-22T10:50:43;93787.25;;;3.54;100.00
9538;BME280;4807;48.024;11.726;2023-12-22T10:53:52;93779.59;;;3.59;100.00
9538;BME280;4807;48.024;11.726;2023-12-22T10:57:01;93776.91;;;3.73;100.00
9538;BME280;4807;48.024;11.726;2023-12-22T11:00:12;93750.31;;;3.90;100.00
9538;BME280;4807;48.024;11.726;2023-12-22T11:03:26;93752.13;;;4.10;100.00
9538;BME280;4807;48.024;11.726;2023-12-22T11:06:41;93739.34;;;4.35;100.00
9538;BME280;4807;48.024;11.726;2023-12-22T11:09:53;93749.63;;;4.58;100.00
9538;BME280;4807;48.024;11.726;2023-12-22T11:13:04;93752.53;;;4.70;100.00
9538;BME280;4807;48.024;11.726;2023-12-22T11:16:15;93762.50;;;4.74;100.00
9538;BME280;4807;48.024;11.726;2023-12-22T11:19:27;93763.50;;;4.73;100.00
9538;BME280;4807;48.024;11.726;2023-12-22T11:22:39;93759.22;;;4.72;100.00
9538;BME280;4807;48.024;11.726;2023-12-22T11:25:50;93760.03;;;4.73;100.00
9538;BME280;4807;48.024;11.726;2023-12-22T11:29:03;93766.75;;;4.75;100.00
9538;BME280;4807;48.024;11.726;2023-12-22T11:32:16;93744.88;;;4.81;100.00
9538;BME280;4807;48.024;11.726;2023-12-22T11:35:27;93764.16;;;4.82;100.00
9538;BME280;4807;48.024;11.726;2023-12-22T11:38:43;93757.91;;;4.89;100.00
9538;BME280;4807;48.024;11.726;2023-12-22T11:41:53;93753.25;;;4.91;100.00
9538;BME280;4807;48.024;11.726;2023-12-22T11:45:04;93750.59;;;4.85;99.75
9538;BME280;4807;48.024;11.726;2023-12-22T11:48:13;93770.09;;;4.90;100.00
9538;BME280;4807;48.024;11.726;2023-12-22T11:51:21;93757.91;;;4.89;100.00
9538;BME280;4807;48.024;11.726;2023-12-22T11:54:49;93767.00;;;4.87;100.00
9538;BME280;4807;48.024;11.726;2023-12-22T11:58:35;93766.59;;;4.83;100.00
9538;BME280;4807;48.024;11.726;2023-12-22T12:01:54;93770.25;;;4.82;100.00
9538;BME280;4807;48.024;11.726;2023-12-22T12:05:05;93764.97;;;4.82;100.00
9538;BME280;4807;48.024;11.726;2023-12-22T12:08:15;93751.41;;;4.85;100.00
9538;BME280;4807;48.024;11.726;2023-12-22T12:12:11;93754.25;;;4.90;100.00
9538;BME280;4807;48.024;11.726;2023-12-22T12:15:25;93756.72;;;4.92;100.00
9538;BME280;4807;48.024;11.726;2023-12-22T12:18:34;93772.34;;;4.93;100.00
9538;BME280;4807;48.024;11.726;2023-12-22T12:21:43;93757.13;;;4.95;100.00
9538;BME280;4807;48.024;11.726;2023-12-22T12:24:51;93756.72;;;4.98;100.00
9538;BME280;4807;48.024;11.726;2023-12-22T12:28:06;93753.91;;;5.00;100.00
9538;BME280;4807;48.024;11.726;2023-12-22T12:31:16;93737.28;;;5.06;99.80
9538;BME280;4807;48.024;11.726;2023-12-22T12:34:25;93742.53;;;4.99;100.00
9538;BME280;4807;48.024;11.726;2023-12-22T12:37:35;93735.84;;;5.04;100.00
9538;BME280;4807;48.024;11.726;2023-12-22T12:40:46;93723.06;;;5.01;100.00
9538;BME280;4807;48.024;11.726;2023-12-22T12:44:00;93715.38;;;5.06;100.00
9538;BME280;4807;48.024;11.726;2023-12-22T12:47:12;93711.72;;;5.07;99.99
9538;BME280;4807;48.024;11.726;2023-12-22T12:50:22;93698.16;;;5.10;99.91
9538;BME280;4807;48.024;11.726;2023-12-22T12:53:31;93695.69;;;5.08;100.00
9538;BME280;4807;48.024;11.726;2023-12-22T12:56:42;93690.81;;;5.12;100.00
9538;BME280;4807;48.024;11.726;2023-12-22T12:59:52;93672.41;;;5.18;100.00
9538;BME280;4807;48.024;11.726;2023-12-22T13:03:04;93673.44;;;5.24;98.85
9538;BME280;4807;48.024;11.726;2023-12-22T13:06:14;93675.63;;;5.20;98.92
9538;BME280;4807;48.024;11.726;2023-12-22T13:09:32;93672.00;;;5.21;97.95
9538;BME280;4807;48.024;11.726;2023-12-22T13:12:42;93661.22;;;5.16;98.72
9538;BME280;4807;48.024;11.726;2023-12-22T13:15:51;93662.44;;;5.14;98.90
9538;BME280;4807;48.024;11.726;2023-12-22T13:19:01;93642.31;;;5.06;98.94
9538;BME280;4807;48.024;11.726;2023-12-22T13:22:10;93643.13;;;5.00;98.31
9538;BME280;4807;48.024;11.726;2023-12-22T13:25:18;93604.16;;;4.95;98.34
9538;BME280;4807;48.024;11.726;2023-12-22T13:28:29;93645.31;;;4.90;98.97
9538;BME280;4807;48.024;11.726;2023-12-22T13:31:40;93643.50;;;4.90;98.68
9538;BME280;4807;48.024;11.726;2023-12-22T13:34:51;93628.47;;;4.84;99.33
9538;BME280;4807;48.024;11.726;2023-12-22T13:38:00;93617.50;;;4.81;100.00
9538;BME280;4807;48.024;11.726;2023-12-22T13:41:10;93626.03;;;4.83;99.67
9538;BME280;4807;48.024;11.726;2023-12-22T13:44:18;93616.31;;;4.83;99.98
9538;BME280;4807;48.024;11.726;2023-12-22T13:47:28;93617.50;;;4.81;100.00
9538;BME280;4807;48.024;11.726;2023-12-22T13:50:38;93611.03;;;4.90;100.00
9538;BME280;4807;48.024;11.726;2023-12-22T13:53:48;93590.13;;;4.88;100.00
9538;BME280;4807;48.024;11.726;2023-12-22T13:56:56;93586.28;;;4.91;100.00
9538;BME280;4807;48.024;11.726;2023-12-22T14:00:26;93580.22;;;4.90;100.00
9538;BME280;4807;48.024;11.726;2023-12-22T14:03:37;93576.56;;;4.98;100.00
9538;BME280;4807;48.024;11.726;2023-12-22T14:06:46;93574.56;;;5.00;100.00
9538;BME280;4807;48.024;11.726;2023-12-22T14:09:55;93587.75;;;5.00;100.00
9538;BME280;4807;48.024;11.726;2023-12-22T14:13:04;93573.34;;;5.03;100.00
9538;BME280;4807;48.024;11.726;2023-12-22T14:16:13;93573.34;;;5.03;100.00
9538;BME280;4807;48.024;11.726;2023-12-22T14:19:24;93575.38;;;5.01;100.00
9538;BME280;4807;48.024;11.726;2023-12-22T14:22:34;93586.94;;;4.99;100.00
9538;BME280;4807;48.024;11.726;2023-12-22T14:25:43;93570.91;;;5.01;99.27
9538;BME280;4807;48.024;11.726;2023-12-22T14:28:52;93589.56;;;4.99;99.17
9538;BME280;4807;48.024;11.726;2023-12-22T14:32:01;93564.81;;;5.01;99.74
9538;BME280;4807;48.024;11.726;2023-12-22T14:35:13;93578.81;;;5.01;99.71
9538;BME280;4807;48.024;11.726;2023-12-22T14:38:22;93575.75;;;5.04;99.86
9538;BME280;4807;48.024;11.726;2023-12-22T14:41:31;93596.09;;;5.10;99.59
9538;BME280;4807;48.024;11.726;2023-12-22T14:44:39;93603.78;;;5.12;99.64
9538;BME280;4807;48.024;11.726;2023-12-22T14:47:48;93600.53;;;5.10;99.35
9538;BME280;4807;48.024;11.726;2023-12-22T14:50:58;93610.09;;;5.17;99.14
9538;BME280;4807;48.024;11.726;2023-12-22T14:54:07;93616.78;;;5.20;99.26
9538;BME280;4807;48.024;11.726;2023-12-22T14:57:17;93616.19;;;5.18;99.64
9538;BME280;4807;48.024;11.726;2023-12-22T15:00:26;93614.16;;;5.26;99.16
9538;BME280;4807;48.024;11.726;2023-12-22T15:03:35;93608.28;;;5.31;99.14
9538;BME280;4807;48.024;11.726;2023-12-22T15:06:46;93634.03;;;5.29;98.58
9538;BME280;4807;48.024;11.726;2023-12-22T15:10:07;93616.00;;;5.32;98.59
9538;BME280;4807;48.024;11.726;2023-12-22T15:13:16;93640.75;;;5.31;98.74
9538;BME280;4807;48.024;11.726;2023-12-22T15:16:24;93634.66;;;5.37;99.10
9538;BME280;4807;48.024;11.726;2023-12-22T15:19:33;93641.19;;;5.42;98.22
9538;BME280;4807;48.024;11.726;2023-12-22T15:22:42;93635.47;;;5.38;99.01
9538;BME280;4807;48.024;11.726;2023-12-22T15:25:51;93632.66;;;5.33;99.13
9538;BME280;4807;48.024;11.726;2023-12-22T15:28:59;93624.50;;;5.28;99.82
9538;BME280;4807;48.024;11.726;2023-12-22T15:32:08;93621.66;;;5.36;99.68
9538;BME280;4807;48.024;11.726;2023-12-22T15:35:17;93630.19;;;5.38;99.06
9538;BME280;4807;48.024;11.726;2023-12-22T15:38:28;93635.69;;;5.30;100.00
9538;BME280;4807;48.024;11.726;2023-12-22T15:41:36;93653.34;;;5.29;100.00
9538;BME280;4807;48.024;11.726;2023-12-22T15:44:44;93654.56;;;5.40;100.00
9538;BME280;4807;48.024;11.726;2023-12-22T15:47:53;93648.69;;;5.45;100.00
9538;BME280;4807;48.024;11.726;2023-12-22T15:51:05;93654.59;;;5.53;99.99
9538;BME280;4807;48.024;11.726;2023-12-22T15:54:39;93659.03;;;5.53;99.91
9538;BME280;4807;48.024;11.726;2023-12-22T15:57:47;93665.16;;;5.53;100.00
9538;BME280;4807;48.024;11.726;2023-12-22T16:00:57;93655.81;;;5.57;100.00
9538;BME280;4807;48.024;11.726;2023-12-22T16:04:06;93681.00;;;5.66;99.79
9538;BME280;4807;48.024;11.726;2023-12-22T16:07:14;93679.38;;;5.65;99.70
9538;BME280;4807;48.024;11.726;2023-12-22T16:10:25;93666.00;;;5.67;100.00
9538;BME280;4807;48.024;11.726;2023-12-22T16:13:34;93683.03;;;5.71;100.00
9538;BME280;4807;48.024;11.726;2023-12-22T16:16:42;93681.84;;;5.73;100.00
9538;BME280;4807;48.024;11.726;2023-12-22T16:19:51;93672.91;;;5.74;100.00
9538;BME280;4807;48.024;11.726;2023-12-22T16:23:01;93694.41;;;5.78;100.00
9538;BME280;4807;48.024;11.726;2023-12-22T16:26:11;93692.81;;;5.84;100.00
9538;BME280;4807;48.024;11.726;2023-12-22T16:29:20;93691.19;;;5.83;100.00
9538;BME280;4807;48.024;11.726;2023-12-22T16:32:28;93696.88;;;5.93;100.00
9538;BME280;4807;48.024;11.726;2023-12-22T16:35:38;93709.72;;;5.89;100.00
9538;BME280;4807;48.024;11.726;2023-12-22T16:38:47;93694.03;;;5.94;100.00
9538;BME280;4807;48.024;11.726;2023-12-22T16:41:56;93693.66;;;6.04;100.00
9538;BME280;4807;48.024;11.726;2023-12-22T16:45:07;93698.94;;;6.04;100.00
9538;BME280;4807;48.024;11.726;2023-12-22T16:48:15;93678.78;;;6.09;100.00
9538;BME280;4807;48.024;11.726;2023-12-22T16:51:25;93701.97;;;6.14;100.00
9538;BME280;4807;48.024;11.726;2023-12-22T16:54:33;93702.38;;;6.18;99.97
9538;BME280;4807;48.024;11.726;2023-12-22T16:57:43;93704.19;;;6.17;100.00
9538;BME280;4807;48.024;11.726;2023-12-22T17:00:52;93722.09;;;6.22;100.00
9538;BME280;4807;48.024;11.726;2023-12-22T17:04:22;93708.06;;;6.21;100.00
9538;BME280;4807;48.024;11.726;2023-12-22T17:07:31;93695.88;;;6.13;100.00